Columbus, Ohio
Traffic Map
Current Weather Conditions
Columbus, Ohio
Broken Clouds
Broken Clouds
67°
Feels Like: 67°
Wind Chill: 67° Ceiling: 1900
Heat Index: 67° Visibility: 10mi
Dew Point: 62° Wind: 10mph
Humidity: 84% Direction: 90° (E)
Pressure: 29.4in Gusts: 0mph
Raw Report DataKCMH 242251Z 09009KT 10SM BKN019 BKN025 BKN030 19/17 A2940 RMK AO2 SLP950 T01940167
Traffic Incident Summary
Active as of:
Severity:
Category:
InformationThere was an issue retrieving the traffic information for this location. Please try a different location or try again shortly.
Advertisements
Track Severe Weather on mobile